• Join FlightAware (Why Join?)
  • Login
  • US Flag 
02:11AM EDT


 

Airport Tracker/Info


-or-


 

Live Flight TrackerFlight Track Log ✈ AWE3418 ✈ 15-Apr-2013 ✈ KCMH - KPHL

Flight Track Log - Related Links

Times and Time Zones

All times are in EDT time to prevent confusion due to time zone crossing. See the AWE3418 flight status page for this flight to view local times or setup timezone preferences in your user account.

Time Position Orientation Groundspeed Altitude Reporting Facility
EDT Latitude Longitude Course Direction KTS MPH feet Rate Location/Type
05:13PM 40.0022 -82.9128 81° East 140 161 1,500  Level Indianapolis Center
05:14PM 40.0097 -82.9797 278° West 185 213 3,700 2,160 Climbing Indianapolis Center
05:15PM 39.9747 -83.0392 232° Southwest 233 268 6,400 2,580 Climbing Indianapolis Center
05:16PM 40.0354 -82.5125 83° East  Level FlightAware Approximate
05:16PM 39.9281 -82.9686 131° Southeast 303 349 9,100  Level Indianapolis Center
05:17PM 40.0480 -82.3871 83° East  Level FlightAware Approximate
05:17PM 39.9239 -82.8481 93° East 329 379 10,800  Level Indianapolis Center
05:18PM 40.0660 -82.2629 79° East  Level FlightAware Approximate
05:18PM 39.9350 -82.7072 84° East 388 447 13,300  Level Indianapolis Center
05:19PM 40.0852 -82.1351 81° East  Level FlightAware Approximate
05:19PM 39.9614 -82.5464 78° East 388 447 16,700  Level Indianapolis Center
05:21PM 39.9844 -82.4003 78° East 406 467 18,800 2,100 Climbing Indianapolis Center
05:22PM 40.0092 -82.2436 78° East 432 497 21,100 2,280 Climbing Indianapolis Center
05:23PM 40.0350 -82.0811 78° East 452 520 23,600 2,040 Climbing Indianapolis Center
05:24PM 40.0611 -81.9153 78° East 460 529 25,400 1,260 Climbing Indianapolis Center
05:25PM 40.0886 -81.7308 79° East 476 548 26,300 1,080 Climbing Indianapolis Center
05:26PM 40.1153 -81.5586 79° East 481 554 27,700 1,260 Climbing Indianapolis Center
05:26PM 40.1283 -81.4792 78° East 481 554 28,300 1,260 Climbing Cleveland Center
05:27PM 40.1544 -81.3028 79° East 487 560 29,600 840 Climbing Cleveland Center
05:28PM 40.1783 -81.1239 80° East 492 566 30,000 180 Climbing Cleveland Center
05:29PM 40.1917 -80.9419 84° East 492 566 30,000  Level Cleveland Center
05:30PM 40.2006 -80.7597 86° East 497 572 30,000  Level Cleveland Center
05:31PM 40.2111 -80.5750 86° East 502 578 30,000  Level Cleveland Center
05:32PM 40.2192 -80.3956 87° East 502 578 30,000  Level Cleveland Center
05:33PM 40.2292 -80.2106 86° East 497 572 30,000  Level Cleveland Center
05:34PM 40.2367 -80.0119 87° East 497 572 30,000  Level Cleveland Center
05:35PM 40.2461 -79.8322 86° East 497 572 30,000  Level Cleveland Center
05:36PM 40.2550 -79.6500 86° East 497 572 30,000  Level Cleveland Center
05:37PM 40.2619 -79.4675 87° East 497 572 30,000  Level Cleveland Center
05:38PM 40.2683 -79.2878 87° East 497 572 30,000  Level Cleveland Center
05:39PM 40.2744 -79.1056 87° East 497 572 30,000 -2,520 Level Cleveland Center
05:40PM 40.2803 -78.9283 87° East 497 572 25,000 -540 Descending Cleveland Center
05:41PM 40.2858 -78.7458 88° East 497 572 29,000 1,980 Climbing Cleveland Center
05:42PM 40.2933 -78.5769 87° East 484 557 29,000  Level Cleveland Center
05:43PM 40.2986 -78.4053 88° East 473 544 29,000 -900 Level Cleveland Center
05:45PM 40.3089 -78.0717 88° East 467 537 26,300 -1,680 Descending New York Center
05:46PM 40.3111 -77.8975 89° East 445 512 23,900 -1,980 Descending New York Center
05:47PM 40.3119 -77.7453 90° East 430 495 22,300 -1,680 Descending New York Center
05:48PM 40.3103 -77.5953 91° East 424 488 20,600 -1,680 Descending New York Center
05:49PM 40.2956 -77.4494 97° East 414 476 19,100 -1,440 Descending New York Center
05:50PM 40.2775 -77.3253 101° East 397 457 17,800 -1,080 Descending New York Center
05:51PM 40.2564 -77.1792 101° East 373 429 17,000 -420 Descending New York Center
05:52PM 40.2347 -77.0356 101° East 387 445 17,000 -480 Level New York Center
05:53PM 40.2131 -76.8922 101° East 395 455 16,100 -1,140 Descending New York Center
05:54PM 40.1914 -76.7492 101° East 400 460 14,800 -1,320 Descending New York Center
05:55PM 40.1728 -76.6197 101° East 394 453 13,500 -1,320 Descending New York Center
05:56PM 40.1522 -76.4875 101° East 386 444 12,300 -1,260 Descending New York Center
05:57PM 40.1294 -76.3500 102° East 360 414 11,000 -960 Descending New York Center
05:58PM 40.1239 -76.3192 103° East 344 396 11,100 120 Climbing FAA TRACON SMA TRACON (SMA)
05:58PM 40.1197 -76.2733 97° East 294 338 11,100  Level FAA TRACON SMA TRACON (SMA)
05:58PM 40.1167 -76.2372 96° East 297 342 11,100  Level FAA TRACON SMA TRACON (SMA)
05:59PM 40.1139 -76.2033 96° East 298 343 11,100  Level FAA TRACON SMA TRACON (SMA)
05:59PM 40.1114 -76.1703 96° East 298 343 11,100  Level FAA TRACON SMA TRACON (SMA)
05:59PM 40.1097 -76.1408 94° East 298 343 11,100  Level FAA TRACON SMA TRACON (SMA)
06:00PM 40.1075 -76.0956 94° East 299 344 11,100  Level FAA TRACON SMA TRACON (SMA)
06:00PM 40.1042 -76.0622 97° East 299 344 11,100  Level FAA TRACON SMA TRACON (SMA)
06:00PM 40.1036 -76.0247 91° East 298 343 11,100  Level FAA TRACON SMA TRACON (SMA)
06:01PM 40.0994 -75.9875 98° East 299 344 11,100 -300 Level FAA TRACON SMA TRACON (SMA)
06:01PM 40.0967 -75.9542 96° East 299 344 10,900 -900 Descending FAA TRACON SMA TRACON (SMA)
06:01PM 40.0939 -75.9247 97° East 301 346 10,500 -1,620 Descending FAA TRACON SMA TRACON (SMA)
06:02PM 40.0911 -75.8786 94° East 300 345 9,800 -1,800 Descending FAA TRACON SMA TRACON (SMA)
06:02PM 40.0883 -75.8467 96° East 299 344 9,300 -1,500 Descending FAA TRACON SMA TRACON (SMA)
06:02PM 40.0806 -75.8189 110° East 307 353 8,800 -1,500 Descending FAA TRACON SMA TRACON (SMA)
06:03PM 40.0608 -75.7833 126° Southeast 288 331 8,300 -1,500 Descending FAA TRACON SMA TRACON (SMA)
06:03PM 40.0467 -75.7572 125° Southeast 288 331 7,800 -1,380 Descending FAA TRACON SMA TRACON (SMA)
06:03PM 40.0344 -75.7336 124° Southeast 288 331 7,400 -1,680 Descending FAA TRACON SMA TRACON (SMA)
06:04PM 40.0153 -75.6981 125° Southeast 286 329 6,700 -1,680 Descending FAA TRACON SMA TRACON (SMA)
06:04PM 40.0019 -75.6717 123° Southeast 284 327 6,300 -1,680 Descending FAA TRACON SMA TRACON (SMA)
06:04PM 39.9903 -75.6489 124° Southeast 274 315 5,600 -2,460 Descending FAA TRACON SMA TRACON (SMA)
06:05PM 39.9739 -75.6172 124° Southeast 261 300 4,600 -2,940 Descending FAA TRACON SMA TRACON (SMA)
06:05PM 39.9581 -75.5889 126° Southeast 254 292 3,500 -2,880 Descending FAA TRACON SMA TRACON (SMA)
06:05PM 39.9461 -75.5664 125° Southeast 254 292 2,800 -1,680 Descending FAA TRACON SMA TRACON (SMA)
06:06PM 39.9319 -75.5439 129° Southeast 249 287 2,500 -780 Descending FAA TRACON SMA TRACON (SMA)
06:06PM 39.9211 -75.5250 127° Southeast 223 257 2,300 -480 Descending FAA TRACON SMA TRACON (SMA)
06:06PM 39.9128 -75.5106 127° Southeast 216 249 2,200 -300 Descending FAA TRACON SMA TRACON (SMA)
06:07PM 39.8961 -75.4819 127° Southeast 215 247 2,100 -180 Descending FAA TRACON SMA TRACON (SMA)
06:07PM 39.8850 -75.4633 128° Southeast 213 245 2,100  Level FAA TRACON SMA TRACON (SMA)
06:07PM 39.8750 -75.4472 129° Southeast 207 238 2,100 -180 Level FAA TRACON SMA TRACON (SMA)
06:08PM 39.8675 -75.4203 110° East 193 222 2,000 -300 Descending FAA TRACON SMA TRACON (SMA)
06:08PM 39.8631 -75.4000 106° East 182 209 1,900 -900 Descending FAA TRACON SMA TRACON (SMA)
06:08PM 39.8594 -75.3819 105° East 179 206 1,400 -1,080 Descending FAA TRACON SMA TRACON (SMA)
06:09PM 39.8553 -75.3608 104° East 132 152 1,200 -600 Descending FAA TRACON SMA TRACON (SMA)
06:09PM 39.8531 -75.3467 102° East 127 146 1,000 -480 Descending FAA TRACON SMA TRACON (SMA)
06:09PM 39.8519 -75.3303 95° East 120 138 900 -300 Descending FAA TRACON SMA TRACON (SMA)